createdAt,value
2019-05-23T00:00:53.474Z,50.10
2019-05-23T00:03:46.939Z,50.00
2019-05-23T00:06:38.251Z,50.30
2019-05-23T00:09:13.778Z,50.30
2019-05-23T00:12:05.769Z,50.50
2019-05-23T00:14:37.855Z,50.40
2019-05-23T00:17:04.873Z,50.40
2019-05-23T00:19:39.127Z,50.40
2019-05-23T00:22:07.692Z,51.00
2019-05-23T00:24:34.431Z,50.60
2019-05-23T00:27:08.467Z,50.60
2019-05-23T00:29:35.826Z,50.50
2019-05-23T00:32:11.184Z,50.50
2019-05-23T00:34:45.598Z,50.50
2019-05-23T00:37:20.902Z,50.40
2019-05-23T00:39:47.727Z,50.50
2019-05-23T00:42:21.157Z,50.50
2019-05-23T00:45:16.366Z,50.60
2019-05-23T00:47:55.607Z,50.60
2019-05-23T00:50:24.051Z,50.60
2019-05-23T00:52:52.511Z,50.60
2019-05-23T00:55:26.529Z,50.70
2019-05-23T00:57:54.180Z,50.70
2019-05-23T01:00:47.946Z,50.60
2019-05-23T01:03:21.983Z,50.50
2019-05-23T01:05:56.071Z,50.50
2019-05-23T01:08:31.291Z,50.50
2019-05-23T01:11:05.743Z,50.40
2019-05-23T01:13:32.501Z,50.40
2019-05-23T01:15:59.539Z,50.30
2019-05-23T01:18:32.992Z,50.30
2019-05-23T01:21:01.444Z,50.40
2019-05-23T01:23:36.363Z,50.30
2019-05-23T01:26:03.308Z,50.40
2019-05-23T01:28:36.763Z,50.30
2019-05-23T01:31:24.731Z,50.30
2019-05-23T01:34:00.246Z,50.30
2019-05-23T01:36:34.447Z,50.30
2019-05-23T01:39:09.877Z,50.30
2019-05-23T01:41:43.891Z,50.30
2019-05-23T01:44:11.212Z,50.40
2019-05-23T01:46:39.371Z,50.30
2019-05-23T01:49:14.249Z,50.30
2019-05-23T01:51:41.008Z,50.30
2019-05-23T01:54:08.930Z,50.40
2019-05-23T01:56:42.182Z,50.40
2019-05-23T01:59:09.246Z,50.30
2019-05-23T02:01:50.745Z,50.30
2019-05-23T02:04:24.120Z,50.30
2019-05-23T02:06:51.660Z,50.40
2019-05-23T02:09:25.162Z,50.40
2019-05-23T02:11:52.406Z,50.40
2019-05-23T02:14:19.738Z,50.60
2019-05-23T02:16:53.448Z,50.50
2019-05-23T02:19:20.293Z,50.50
2019-05-23T02:22:02.018Z,50.60
2019-05-23T02:24:38.088Z,50.50
2019-05-23T02:27:06.339Z,50.60
2019-05-23T02:29:47.074Z,50.70
2019-05-23T02:32:14.505Z,50.60
2019-05-23T02:34:48.352Z,50.60
2019-05-23T02:37:31.974Z,50.60
2019-05-23T02:40:15.783Z,50.60
2019-05-23T02:42:47.250Z,50.50
2019-05-23T02:45:25.988Z,50.50
2019-05-23T02:47:52.496Z,50.60
2019-05-23T02:50:42.286Z,50.60
2019-05-23T02:53:12.544Z,50.60
2019-05-23T02:55:40.087Z,50.70
2019-05-23T02:58:32.294Z,50.70
2019-05-23T03:01:04.342Z,50.70
2019-05-23T03:03:45.450Z,50.70
2019-05-23T03:06:13.884Z,50.60
2019-05-23T03:08:40.507Z,50.60
2019-05-23T03:11:21.846Z,50.60
2019-05-23T03:13:51.483Z,50.60
2019-05-23T03:16:21.027Z,50.60
2019-05-23T03:18:56.915Z,50.60
2019-05-23T03:21:30.251Z,50.60
2019-05-23T03:23:57.279Z,50.60
2019-05-23T03:26:46.688Z,50.60
2019-05-23T03:29:19.855Z,50.60
2019-05-23T03:31:48.804Z,50.60
2019-05-23T03:34:17.206Z,50.70
2019-05-23T03:36:50.882Z,50.60
2019-05-23T03:39:17.739Z,50.60
2019-05-23T03:41:45.084Z,50.70
2019-05-23T03:44:19.143Z,50.70
2019-05-23T03:46:47.790Z,50.70
2019-05-23T03:49:14.418Z,50.70
2019-05-23T03:51:47.540Z,50.80
2019-05-23T03:54:21.757Z,50.80
2019-05-23T03:56:48.830Z,50.70
2019-05-23T03:59:15.457Z,50.80
2019-05-23T04:01:49.354Z,50.80
2019-05-23T04:04:23.896Z,50.80
2019-05-23T04:07:05.636Z,50.80
2019-05-23T04:09:32.284Z,50.90
2019-05-23T04:11:58.929Z,50.40
2019-05-23T04:14:32.071Z,50.90
2019-05-23T04:16:58.810Z,50.90
2019-05-23T04:19:32.369Z,50.90
2019-05-23T04:21:59.007Z,50.90
2019-05-23T04:24:25.745Z,50.90
2019-05-23T04:26:59.019Z,50.90
2019-05-23T04:29:25.885Z,50.90
2019-05-23T04:32:07.177Z,50.90
2019-05-23T04:34:27.507Z,51.00
2019-05-23T04:36:54.258Z,51.00
2019-05-23T04:39:20.926Z,50.90
2019-05-23T04:41:54.189Z,50.90
2019-05-23T04:44:20.831Z,51.00
2019-05-23T04:46:47.460Z,51.00
2019-05-23T04:49:21.380Z,51.00
2019-05-23T04:51:48.016Z,51.00
2019-05-23T04:54:14.675Z,51.20
2019-05-23T04:56:48.451Z,51.10
2019-05-23T04:59:15.099Z,51.10
2019-05-23T05:01:48.775Z,51.40
2019-05-23T05:04:22.539Z,51.30
2019-05-23T05:07:02.521Z,51.50
2019-05-23T05:09:31.605Z,51.50
2019-05-23T05:12:06.599Z,52.00
2019-05-23T05:14:33.627Z,51.80
2019-05-23T05:17:07.776Z,53.30
2019-05-23T05:19:40.805Z,52.50
2019-05-23T05:22:07.436Z,52.00
2019-05-23T05:24:41.139Z,52.10
2019-05-23T05:27:09.387Z,52.60
2019-05-23T05:29:42.167Z,52.40
2019-05-23T05:32:16.490Z,52.30
2019-05-23T05:34:43.333Z,52.30
2019-05-23T05:37:16.757Z,52.30
2019-05-23T05:39:49.833Z,52.30
2019-05-23T05:42:16.580Z,53.50
2019-05-23T05:44:43.742Z,53.70
2019-05-23T05:47:17.938Z,54.30
2019-05-23T05:49:44.576Z,53.50
2019-05-23T05:52:11.418Z,53.80
2019-05-23T05:54:44.288Z,53.60
2019-05-23T05:57:10.935Z,53.30
2019-05-23T05:59:44.294Z,53.30
2019-05-23T06:02:19.156Z,53.10
2019-05-23T06:04:59.194Z,53.10
2019-05-23T06:07:43.515Z,53.40
2019-05-23T06:10:20.538Z,53.30
2019-05-23T06:12:47.172Z,53.50
2019-05-23T06:15:21.835Z,53.40
2019-05-23T06:17:54.988Z,53.50
2019-05-23T06:20:21.841Z,53.60
2019-05-23T06:22:48.768Z,53.60
2019-05-23T06:25:27.827Z,53.80
2019-05-23T06:28:01.001Z,53.70
2019-05-23T06:30:35.961Z,54.00
2019-05-23T06:33:22.613Z,53.80
2019-05-23T06:35:38.240Z,54.00
2019-05-23T06:38:05.277Z,54.10
2019-05-23T06:40:39.123Z,54.30
2019-05-23T06:43:05.979Z,54.40
2019-05-23T06:45:32.842Z,55.00
2019-05-23T06:48:09.457Z,54.50
2019-05-23T06:50:36.089Z,54.50
2019-05-23T06:53:11.517Z,54.50
2019-05-23T06:55:38.032Z,54.40
2019-05-23T06:58:11.526Z,54.50
2019-05-23T07:00:39.000Z,54.50
2019-05-23T07:03:11.791Z,54.40
2019-05-23T07:05:45.368Z,54.70
2019-05-23T07:08:12.012Z,54.60
2019-05-23T07:10:52.574Z,56.10
2019-05-23T07:13:26.779Z,54.80
2019-05-23T07:15:53.319Z,54.70
2019-05-23T07:18:27.074Z,54.80
2019-05-23T07:21:00.173Z,54.70
2019-05-23T07:23:26.824Z,54.80
2019-05-23T07:26:06.135Z,54.80
2019-05-23T07:28:40.385Z,54.80
2019-05-23T07:31:14.673Z,54.70
2019-05-23T07:33:59.851Z,54.60
2019-05-23T07:36:16.808Z,54.60
2019-05-23T07:38:50.123Z,54.50
2019-05-23T07:41:16.869Z,54.40
2019-05-23T07:43:43.491Z,54.60
2019-05-23T07:46:16.635Z,55.30
2019-05-23T07:48:49.823Z,54.90
2019-05-23T07:51:16.474Z,54.90
2019-05-23T07:54:04.135Z,55.40
2019-05-23T07:56:32.523Z,55.50
2019-05-23T07:59:06.064Z,55.40
2019-05-23T08:01:34.682Z,55.20
2019-05-23T08:04:21.025Z,55.20
2019-05-23T08:06:56.145Z,55.10
2019-05-23T08:09:22.773Z,55.30
2019-05-23T08:12:15.491Z,55.20
2019-05-23T08:14:55.565Z,55.00
2019-05-23T08:17:22.192Z,55.20
2019-05-23T08:19:50.386Z,55.60
2019-05-23T08:22:23.555Z,55.40
2019-05-23T08:24:51.496Z,55.30
2019-05-23T08:27:18.568Z,55.20
2019-05-23T08:29:51.610Z,55.50
2019-05-23T08:32:18.265Z,55.70
2019-05-23T08:34:52.053Z,55.50
2019-05-23T08:37:18.972Z,55.70
2019-05-23T08:39:52.654Z,55.70
2019-05-23T08:42:19.566Z,55.80
2019-05-23T08:44:59.979Z,56.10
2019-05-23T08:47:26.695Z,56.40
2019-05-23T08:49:53.323Z,56.40
2019-05-23T08:52:26.538Z,56.40
2019-05-23T08:55:02.991Z,56.40
2019-05-23T08:57:30.603Z,56.50
2019-05-23T08:59:57.533Z,56.30
2019-05-23T09:02:30.387Z,56.00
2019-05-23T09:05:04.635Z,55.80
2019-05-23T09:07:32.637Z,55.90
2019-05-23T09:09:59.375Z,55.50
2019-05-23T09:12:26.419Z,55.50
2019-05-23T09:15:09.800Z,55.30
2019-05-23T09:17:53.524Z,55.20
2019-05-23T09:20:16.202Z,55.60
2019-05-23T09:22:49.831Z,54.90
2019-05-23T09:25:16.871Z,54.90
2019-05-23T09:27:49.921Z,54.90
2019-05-23T09:30:16.552Z,54.80
2019-05-23T09:32:43.181Z,55.00
2019-05-23T09:35:21.417Z,55.00
2019-05-23T09:37:52.373Z,54.90
2019-05-23T09:40:19.399Z,54.80
2019-05-23T09:42:46.019Z,54.90
2019-05-23T09:45:19.734Z,54.90
2019-05-23T09:47:50.706Z,55.30
2019-05-23T09:50:23.623Z,57.00
2019-05-23T09:52:50.553Z,56.60
2019-05-23T09:55:25.139Z,56.90
2019-05-23T09:57:58.186Z,57.50
2019-05-23T10:00:25.622Z,57.20
2019-05-23T10:02:52.242Z,56.40
2019-05-23T10:05:41.772Z,54.90
2019-05-23T10:08:01.242Z,53.90
2019-05-23T10:10:28.176Z,52.20
2019-05-23T10:12:54.871Z,51.80
2019-05-23T10:15:45.911Z,51.90
2019-05-23T10:18:20.803Z,52.50
2019-05-23T10:20:54.323Z,52.70
2019-05-23T10:23:20.977Z,53.00
2019-05-23T10:26:00.560Z,51.70
2019-05-23T10:28:27.257Z,50.90
2019-05-23T10:31:00.645Z,50.30
2019-05-23T10:33:27.263Z,50.50
2019-05-23T10:36:01.468Z,50.40
2019-05-23T10:38:29.443Z,49.50
2019-05-23T10:40:57.206Z,50.10
2019-05-23T10:43:30.200Z,51.30
2019-05-23T10:46:09.587Z,50.20
2019-05-23T10:48:37.016Z,50.30
2019-05-23T10:51:04.943Z,50.10
2019-05-23T10:53:38.117Z,49.70
2019-05-23T10:56:11.425Z,49.20
2019-05-23T10:58:44.739Z,48.70
2019-05-23T11:01:11.604Z,48.20
2019-05-23T11:03:38.437Z,47.50
2019-05-23T11:06:16.502Z,46.20
2019-05-23T11:08:42.121Z,46.60
2019-05-23T11:11:13.913Z,45.90
2019-05-23T11:13:45.427Z,45.00
2019-05-23T11:16:18.850Z,44.10
2019-05-23T11:18:45.524Z,44.70
2019-05-23T11:21:18.959Z,44.60
2019-05-23T11:23:47.383Z,44.40
2019-05-23T11:26:27.283Z,44.20
2019-05-23T11:29:00.383Z,44.80
2019-05-23T11:31:27.165Z,44.90
2019-05-23T11:33:53.812Z,44.70
2019-05-23T11:36:35.539Z,44.80
2019-05-23T11:38:55.131Z,44.80
2019-05-23T11:41:35.936Z,46.40
2019-05-23T11:44:03.858Z,47.10
2019-05-23T11:46:39.110Z,47.00
2019-05-23T11:49:13.283Z,48.10
2019-05-23T11:51:46.522Z,47.30
2019-05-23T11:54:13.840Z,46.60
2019-05-23T11:56:41.084Z,46.10
2019-05-23T11:59:14.230Z,44.30
2019-05-23T12:01:49.750Z,42.50
2019-05-23T12:04:18.187Z,41.10
2019-05-23T12:06:55.931Z,40.60
2019-05-23T12:09:21.939Z,41.50
2019-05-23T12:11:48.680Z,40.50
2019-05-23T12:14:21.629Z,40.20
2019-05-23T12:16:55.184Z,39.80
2019-05-23T12:19:29.224Z,38.40
2019-05-23T12:21:55.981Z,38.10
2019-05-23T12:24:29.238Z,37.90
2019-05-23T12:27:02.591Z,38.30
2019-05-23T12:29:29.238Z,38.30
2019-05-23T12:32:02.792Z,38.70
2019-05-23T12:34:29.829Z,39.20
2019-05-23T12:37:16.779Z,40.10
2019-05-23T12:39:31.913Z,40.30
2019-05-23T12:41:58.544Z,41.20
2019-05-23T12:44:31.434Z,40.70
2019-05-23T12:47:05.754Z,40.30
2019-05-23T12:49:44.008Z,39.70
2019-05-23T12:52:10.740Z,35.80
2019-05-23T12:54:37.378Z,37.60
2019-05-23T12:57:11.465Z,37.50
2019-05-23T12:59:38.083Z,37.20
2019-05-23T13:02:12.894Z,36.40
2019-05-23T13:04:40.024Z,37.10
2019-05-23T13:07:13.326Z,37.60
2019-05-23T13:09:40.051Z,37.60
2019-05-23T13:12:16.448Z,36.80
2019-05-23T13:14:48.947Z,36.10
2019-05-23T13:17:28.058Z,36.60
2019-05-23T13:20:01.112Z,35.70
2019-05-23T13:22:27.863Z,35.40
2019-05-23T13:24:54.511Z,34.50
2019-05-23T13:27:35.371Z,35.00
2019-05-23T13:30:09.479Z,35.50
2019-05-23T13:32:42.940Z,34.60
2019-05-23T13:35:09.668Z,33.90
2019-05-23T13:37:53.290Z,33.90
2019-05-23T13:40:11.560Z,34.30
2019-05-23T13:42:45.357Z,34.40
2019-05-23T13:45:12.993Z,33.80
2019-05-23T13:47:46.385Z,33.90
2019-05-23T13:50:20.667Z,34.20
2019-05-23T13:52:47.820Z,33.60
2019-05-23T13:55:14.950Z,34.20
2019-05-23T13:57:47.839Z,34.60
2019-05-23T14:00:15.871Z,35.20
2019-05-23T14:02:55.390Z,34.80
2019-05-23T14:05:22.344Z,34.90
2019-05-23T14:08:10.703Z,34.10
2019-05-23T14:10:24.356Z,34.80
2019-05-23T14:12:58.019Z,35.20
2019-05-23T14:15:42.366Z,35.10
2019-05-23T14:18:23.580Z,35.60
2019-05-23T14:20:50.402Z,35.70
2019-05-23T14:23:26.055Z,35.90
2019-05-23T14:26:01.298Z,36.40
2019-05-23T14:28:35.243Z,36.10
2019-05-23T14:31:09.703Z,36.60
2019-05-23T14:34:01.687Z,36.90
2019-05-23T14:36:52.914Z,37.00
2019-05-23T14:39:28.127Z,36.60
2019-05-23T14:42:05.463Z,37.00
2019-05-23T14:44:32.494Z,36.80
2019-05-23T14:47:10.753Z,37.20
2019-05-23T14:49:44.895Z,37.70
2019-05-23T14:52:20.113Z,38.10
2019-05-23T14:54:54.398Z,38.30
2019-05-23T14:57:28.547Z,37.90
2019-05-23T15:00:01.648Z,38.10
2019-05-23T15:02:28.381Z,38.10
2019-05-23T15:05:01.736Z,38.20
2019-05-23T15:07:34.979Z,38.60
2019-05-23T15:10:11.098Z,38.70
2019-05-23T15:12:37.622Z,38.70
2019-05-23T15:15:11.461Z,39.00
2019-05-23T15:17:44.666Z,38.50
2019-05-23T15:20:24.499Z,39.70
2019-05-23T15:22:59.861Z,39.60
2019-05-23T15:25:31.773Z,39.60
2019-05-23T15:27:58.413Z,39.50
2019-05-23T15:30:25.163Z,39.60
2019-05-23T15:32:58.045Z,39.30
2019-05-23T15:35:32.188Z,39.60
2019-05-23T15:37:58.819Z,39.80
2019-05-23T15:40:25.565Z,40.10
2019-05-23T15:42:59.665Z,39.90
2019-05-23T15:45:26.514Z,40.10
2019-05-23T15:48:00.818Z,40.30
2019-05-23T15:50:36.058Z,40.30
2019-05-23T15:53:13.464Z,40.20
2019-05-23T15:55:53.700Z,40.20
2019-05-23T15:58:31.924Z,40.20
2019-05-23T16:01:00.364Z,39.90
2019-05-23T16:03:38.511Z,40.00
2019-05-23T16:06:13.991Z,40.20
2019-05-23T16:08:47.248Z,40.10
2019-05-23T16:11:21.293Z,39.50
2019-05-23T16:13:54.629Z,40.40
2019-05-23T16:16:28.011Z,40.80
2019-05-23T16:19:01.351Z,40.10
2019-05-23T16:21:28.395Z,41.10
2019-05-23T16:24:07.688Z,40.70
2019-05-23T16:26:48.101Z,41.60
2019-05-23T16:29:16.638Z,41.30
2019-05-23T16:31:50.223Z,41.00
2019-05-23T16:34:23.457Z,41.50
2019-05-23T16:36:50.040Z,41.40
2019-05-23T16:39:16.756Z,41.40
2019-05-23T16:41:49.551Z,41.50
2019-05-23T16:44:16.270Z,41.60
2019-05-23T16:46:50.138Z,41.50
2019-05-23T16:49:23.290Z,41.00
2019-05-23T16:51:50.224Z,41.40
2019-05-23T16:54:18.671Z,41.40
2019-05-23T16:56:58.014Z,41.80
2019-05-23T16:59:26.459Z,41.70
2019-05-23T17:02:18.691Z,41.70
2019-05-23T17:04:47.219Z,41.80
2019-05-23T17:07:40.823Z,41.80
2019-05-23T17:10:12.494Z,41.90
2019-05-23T17:12:57.244Z,41.60
2019-05-23T17:15:42.289Z,41.40
2019-05-23T17:18:24.082Z,41.90
2019-05-23T17:21:05.427Z,42.10
2019-05-23T17:23:43.967Z,42.00
2019-05-23T17:26:12.430Z,42.00
2019-05-23T17:28:41.147Z,42.20
2019-05-23T17:31:16.328Z,42.30
2019-05-23T17:33:43.066Z,42.20
2019-05-23T17:36:16.750Z,42.40
2019-05-23T17:38:44.785Z,42.10
2019-05-23T17:41:17.838Z,42.30
2019-05-23T17:43:44.552Z,42.40
2019-05-23T17:46:32.049Z,42.10
2019-05-23T17:49:11.361Z,42.50
2019-05-23T17:51:42.906Z,42.50
2019-05-23T17:54:18.628Z,42.50
2019-05-23T17:56:54.348Z,42.70
2019-05-23T17:59:21.207Z,42.90
2019-05-23T18:01:58.726Z,42.90
2019-05-23T18:04:27.994Z,43.00
2019-05-23T18:07:02.451Z,43.20
2019-05-23T18:09:29.578Z,43.20
2019-05-23T18:12:04.664Z,43.40
2019-05-23T18:14:34.211Z,43.60
2019-05-23T18:17:10.935Z,43.70
2019-05-23T18:19:49.971Z,43.70
2019-05-23T18:22:23.895Z,43.70
2019-05-23T18:24:50.468Z,44.20
2019-05-23T18:27:24.083Z,43.90
2019-05-23T18:29:58.062Z,44.00
2019-05-23T18:32:27.110Z,44.10
2019-05-23T18:35:01.335Z,44.30
2019-05-23T18:37:28.172Z,44.60
2019-05-23T18:40:01.861Z,44.50
2019-05-23T18:42:35.141Z,44.40
2019-05-23T18:45:11.464Z,44.50
2019-05-23T18:47:46.660Z,44.60
2019-05-23T18:50:14.289Z,44.60
2019-05-23T18:52:47.937Z,44.70
2019-05-23T18:55:14.678Z,44.90
2019-05-23T18:57:48.465Z,44.80
2019-05-23T19:00:25.334Z,44.90
2019-05-23T19:02:52.280Z,45.00
2019-05-23T19:05:27.595Z,45.10
2019-05-23T19:08:00.615Z,45.20
2019-05-23T19:10:33.731Z,45.20
2019-05-23T19:13:06.958Z,45.30
2019-05-23T19:15:33.591Z,45.40
2019-05-23T19:18:13.633Z,45.50
2019-05-23T19:20:46.771Z,45.50
2019-05-23T19:23:13.432Z,45.40
2019-05-23T19:25:47.863Z,45.50
2019-05-23T19:28:21.061Z,45.70
2019-05-23T19:30:54.205Z,45.50
2019-05-23T19:33:20.979Z,45.70
2019-05-23T19:35:55.380Z,45.80
2019-05-23T19:38:22.816Z,45.60
2019-05-23T19:40:50.464Z,45.70
2019-05-23T19:43:23.848Z,45.80
2019-05-23T19:45:51.203Z,45.70
2019-05-23T19:48:25.282Z,45.70
2019-05-23T19:50:52.409Z,46.00
2019-05-23T19:53:25.831Z,46.00
2019-05-23T19:55:52.958Z,46.10
2019-05-23T19:58:27.168Z,46.10
2019-05-23T20:01:00.491Z,46.10
2019-05-23T20:03:33.766Z,46.50
2019-05-23T20:06:07.278Z,46.50
2019-05-23T20:08:33.984Z,46.50
2019-05-23T20:11:00.624Z,46.40
2019-05-23T20:13:34.203Z,46.40
2019-05-23T20:16:01.035Z,46.60
2019-05-23T20:18:33.952Z,46.60
2019-05-23T20:21:06.955Z,46.50
2019-05-23T20:23:33.579Z,46.70
2019-05-23T20:28:56.406Z,46.60
2019-05-23T20:31:29.711Z,46.60
2019-05-23T20:34:06.311Z,46.80
2019-05-23T20:36:37.798Z,46.60
2019-05-23T20:39:05.947Z,46.70
2019-05-23T20:41:39.875Z,46.60
2019-05-23T20:44:13.158Z,46.90
2019-05-23T20:46:39.797Z,47.20
2019-05-23T20:49:13.400Z,47.00
2019-05-23T20:51:40.031Z,46.90
2019-05-23T20:54:13.707Z,46.90
2019-05-23T20:56:40.334Z,47.00
2019-05-23T20:59:07.562Z,47.10
2019-05-23T21:01:42.933Z,47.00
2019-05-23T21:04:16.260Z,47.00
2019-05-23T21:06:49.604Z,47.30
2019-05-23T21:09:16.349Z,47.40
2019-05-23T21:11:49.968Z,47.30
2019-05-23T21:14:24.289Z,47.40
2019-05-23T21:16:57.237Z,47.70
2019-05-23T21:19:23.883Z,47.70
2019-05-23T21:21:56.814Z,48.00
2019-05-23T21:24:23.442Z,47.90
2019-05-23T21:27:03.254Z,48.60
2019-05-23T21:29:42.396Z,48.60
2019-05-23T21:32:09.022Z,48.40
2019-05-23T21:34:42.661Z,48.40
2019-05-23T21:37:15.757Z,49.00
2019-05-23T21:39:48.878Z,48.80
2019-05-23T21:42:15.504Z,48.60
2019-05-23T21:44:42.155Z,48.80
2019-05-23T21:47:15.542Z,49.00
2019-05-23T21:49:42.324Z,48.70
2019-05-23T21:52:15.793Z,48.40
2019-05-23T21:54:42.430Z,48.50
2019-05-23T21:57:16.414Z,48.80
2019-05-23T21:59:43.040Z,48.50
2019-05-23T22:02:28.168Z,48.50
2019-05-23T22:04:56.608Z,48.50
2019-05-23T22:07:23.242Z,48.90
2019-05-23T22:09:56.442Z,48.60
2019-05-23T22:12:23.076Z,48.40
2019-05-23T22:14:49.819Z,48.80
2019-05-23T22:17:25.030Z,48.60
2019-05-23T22:19:51.687Z,48.50
2019-05-23T22:22:24.495Z,48.40
2019-05-23T22:24:51.159Z,48.40
2019-05-23T22:27:24.442Z,48.30
2019-05-23T22:30:04.120Z,48.40
2019-05-23T22:32:38.961Z,48.30
2019-05-23T22:35:07.939Z,48.30
2019-05-23T22:37:34.584Z,48.30
2019-05-23T22:40:07.400Z,48.30
2019-05-23T22:42:34.147Z,48.30
2019-05-23T22:45:01.465Z,48.30
2019-05-23T22:47:34.838Z,48.30
2019-05-23T22:50:01.695Z,48.20
2019-05-23T22:52:35.004Z,48.30
2019-05-23T22:55:01.682Z,48.20
2019-05-23T22:57:35.212Z,48.30
2019-05-23T23:00:02.378Z,48.30
2019-05-23T23:02:35.414Z,48.20
2019-05-23T23:05:02.092Z,48.20
2019-05-23T23:07:36.032Z,48.20
2019-05-23T23:10:11.129Z,48.40
2019-05-23T23:12:37.794Z,48.30
2019-05-23T23:15:05.195Z,48.90
2019-05-23T23:17:38.032Z,48.50
2019-05-23T23:20:06.962Z,48.40
2019-05-23T23:22:40.447Z,48.50
2019-05-23T23:25:07.317Z,48.40
2019-05-23T23:27:40.803Z,48.40
2019-05-23T23:30:16.039Z,48.50
2019-05-23T23:32:56.068Z,48.60
2019-05-23T23:35:22.747Z,48.50
2019-05-23T23:37:49.374Z,48.50
2019-05-23T23:40:23.090Z,48.50
2019-05-23T23:42:49.732Z,48.50
2019-05-23T23:45:40.708Z,48.40
2019-05-23T23:48:25.427Z,48.80
2019-05-23T23:51:17.103Z,49.60
2019-05-23T23:54:08.530Z,48.80
2019-05-23T23:59:31.002Z,48.70
